Main page
METAR-TAF:

METAR-TAF

Airports :

Guernsey,

Guernsey Airport

latitude: 49-26N, longitude: 002-36W, elevation: 102 m

Current weather observation

The report was made 17 minutes ago, at 19:50 UTC
Wind 3 kt from the North/Northeast
Temperature 7°C
Humidity 76%
Pressure 1033 hPa
Visibility 10 km or more
no clouds below 1500 m and no cumulonimbus

METAR: EGJB 181950Z 03003KT CAVOK 07/03 Q1033

Time: 20:07 (20:07 UTC)

Forecast

The report was made 3 hours and 8 minutes ago, at 16:59 UTC
Forecast valid from 18 at 18 UTC to 19 at 03 UTC
Wind 7 kt from the Northeast
Visibility 10 km or more
Few clouds at a height of 1500 ft
Becoming
from 19 at 00 UTC to 19 at 03 UTC
Wind 6 kt from the South/Southwest
Probability 30% :
Temporary
from 19 at 00 UTC to 19 at 03 UTC
Visibility: 5000 m
mist

TAF: EGJB 181659Z 1818/1903 04007KT 9999 FEW015 BECMG 1900/1903 21006KT PROB30 TEMPO 1900/1903 5000 BR

Weather observations and forecasts of more than 4000 airports (METAR and TAF reports).

The available stations are represented by yellow and red dots on the map.

Hover mouse over dot to see the name of the station.

Then click to see weather observations and forecasts.

To change the map : click on the green buttons with a black cross to zoom in, on the green button with a dash to zoom out, or on the green arrows for adjacent maps.


METAR-TAF: